Time;durP1;ratioP1;P1;durP2;ratioP2;P2;SDS_P1;SDS_P2;PMS_P1;PMS_P2;Temp;Humidity;BMP_temperature;BMP_pressure;BME280_temperature;BME280_humidity;BME280_pressure;Samples;Min_cycle;Max_cycle;Signal;HPM_P1;HPM_P2
2022/08/14 00:00:17;;;;;;;5.90;4.27;;;20.90;99.90;;;;;;5076727;28;20619;-70
2022/08/14 00:02:44;;;;;;;3.90;3.70;;;20.90;99.90;;;;;;5077187;28;20577;-70
2022/08/14 00:05:14;;;;;;;4.23;3.93;;;20.90;99.90;;;;;;5076706;28;20684;-70
2022/08/14 00:07:41;;;;;;;5.27;3.73;;;20.80;99.90;;;;;;5075325;28;20593;-72
2022/08/14 00:10:10;;;;;;;3.87;3.57;;;20.80;99.90;;;;;;5076806;28;20582;-70
2022/08/14 00:12:40;;;;;;;8.17;3.73;;;20.70;99.90;;;;;;5076268;28;20576;-70
2022/08/14 00:15:14;;;;;;;4.00;3.70;;;20.70;99.90;;;;;;5076561;28;20586;-71
2022/08/14 00:17:41;;;;;;;3.87;3.67;;;20.70;99.90;;;;;;5076629;28;20582;-70
2022/08/14 00:20:08;;;;;;;5.70;4.00;;;20.60;99.90;;;;;;5076245;28;20727;-69
2022/08/14 00:22:35;;;;;;;5.97;3.90;;;20.60;99.90;;;;;;5074918;28;20606;-70
2022/08/14 00:25:01;;;;;;;3.87;3.67;;;20.50;99.90;;;;;;5076347;28;20629;-69
2022/08/14 00:27:28;;;;;;;3.53;3.33;;;20.30;99.90;;;;;;5076307;28;21197;-70
2022/08/14 00:29:54;;;;;;;3.60;3.30;;;19.80;99.90;;;;;;5074778;28;20980;-70
2022/08/14 00:32:21;;;;;;;3.63;3.33;;;19.50;99.90;;;;;;5076284;28;20574;-70
2022/08/14 00:34:47;;;;;;;3.90;3.60;;;19.50;99.90;;;;;;5076408;28;20632;-70
2022/08/14 00:37:14;;;;;;;7.63;3.93;;;19.30;99.90;;;;;;5076192;28;20613;-70
2022/08/14 00:39:41;;;;;;;4.20;3.90;;;19.20;99.90;;;;;;5076455;28;20570;-70
2022/08/14 00:42:07;;;;;;;3.77;3.43;;;18.90;99.90;;;;;;5075136;28;20698;-70
2022/08/14 00:44:34;;;;;;;6.03;3.50;;;18.80;99.90;;;;;;5075825;28;20921;-70
2022/08/14 00:47:02;;;;;;;4.00;3.67;;;18.60;99.90;;;;;;5075602;28;20582;-70
2022/08/14 00:49:31;;;;;;;4.67;4.00;;;18.60;99.90;;;;;;5075815;28;20610;-70
2022/08/14 00:51:59;;;;;;;4.33;4.07;;;18.50;99.90;;;;;;5074919;28;20578;-70
2022/08/14 00:54:25;;;;;;;5.40;3.70;;;18.50;99.90;;;;;;5076034;28;20731;-70
2022/08/14 00:56:53;;;;;;;6.87;3.50;;;18.50;99.90;;;;;;5057465;28;21177;-70
2022/08/14 00:59:19;;;;;;;4.17;3.77;;;18.50;99.90;;;;;;5075596;28;20610;-70
2022/08/14 01:01:47;;;;;;;6.00;3.60;;;18.60;99.90;;;;;;5074095;28;20664;-70
2022/08/14 01:04:16;;;;;;;3.87;3.60;;;18.80;99.90;;;;;;5075482;28;20586;-70
2022/08/14 01:06:43;;;;;;;3.60;3.40;;;18.90;99.90;;;;;;5057813;28;20657;-70
2022/08/14 01:09:10;;;;;;;4.20;3.90;;;18.90;99.90;;;;;;5074829;28;20584;-70
2022/08/14 01:11:37;;;;;;;4.13;3.83;;;19.00;99.90;;;;;;5075220;28;20586;-71
2022/08/14 01:14:04;;;;;;;3.50;3.30;;;19.10;99.90;;;;;;5075605;28;20575;-70
2022/08/14 01:16:31;;;;;;;4.07;3.87;;;19.20;99.90;;;;;;5075350;28;20573;-70
2022/08/14 01:21:44;;;;;;;4.53;4.20;;;19.20;99.90;;;;;;5075225;28;20708;-72
2022/08/14 01:24:14;;;;;;;3.97;3.77;;;19.00;99.90;;;;;;5074115;28;20653;-70
2022/08/14 01:26:41;;;;;;;4.77;4.43;;;18.90;99.90;;;;;;5074069;28;20593;-71
2022/08/14 01:29:08;;;;;;;4.17;3.93;;;18.70;99.90;;;;;;5075650;28;20596;-71
2022/08/14 01:31:50;;;;;;;4.77;4.30;;;18.30;99.90;;;;;;5075294;28;20557;-70
2022/08/14 01:34:19;;;;;;;6.77;4.50;;;18.20;99.90;;;;;;5075059;28;20618;-70
2022/08/14 01:36:45;;;;;;;4.33;4.03;;;18.10;99.90;;;;;;5075185;28;20630;-70
2022/08/14 01:39:14;;;;;;;6.57;4.27;;;18.10;99.90;;;;;;5074834;28;21165;-70
2022/08/14 01:41:43;;;;;;;3.80;3.50;;;18.40;99.90;;;;;;5074447;28;20641;-70
2022/08/14 01:44:14;;;;;;;5.90;4.27;;;18.50;99.90;;;;;;5075002;28;20609;-70
2022/08/14 01:46:43;;;;;;;4.70;4.40;;;18.70;99.90;;;;;;5074646;28;21259;-70
2022/08/14 01:49:14;;;;;;;3.80;3.60;;;18.60;99.90;;;;;;5075091;28;20575;-70
2022/08/14 01:51:43;;;;;;;5.90;4.80;;;18.80;99.90;;;;;;5074529;28;20625;-70
2022/08/14 01:54:12;;;;;;;6.00;4.90;;;18.90;99.90;;;;;;5074932;28;20625;-70
2022/08/14 01:56:39;;;;;;;5.00;4.67;;;19.10;99.90;;;;;;5075064;28;20581;-70
2022/08/14 01:59:19;;;;;;;4.77;4.40;;;19.20;99.90;;;;;;5074691;28;20624;-70
2022/08/14 02:01:55;;;;;;;7.13;5.50;;;19.20;99.90;;;;;;5074316;28;20642;-70
2022/08/14 02:04:24;;;;;;;4.90;4.50;;;19.20;99.90;;;;;;5074097;28;21015;-70
2022/08/14 02:06:51;;;;;;;4.50;4.07;;;19.30;99.90;;;;;;5074511;28;21027;-71
2022/08/14 02:09:20;;;;;;;5.27;4.77;;;19.30;99.90;;;;;;5074299;28;20607;-70
2022/08/14 02:11:49;;;;;;;5.10;4.77;;;19.30;99.90;;;;;;5074382;28;21055;-70
2022/08/14 02:14:16;;;;;;;5.00;4.60;;;19.30;99.90;;;;;;5073917;28;20549;-70
2022/08/14 02:16:51;;;;;;;6.40;4.80;;;19.30;99.90;;;;;;5074029;28;20630;-70
2022/08/14 02:19:21;;;;;;;4.77;4.47;;;19.20;99.90;;;;;;5073811;28;20629;-70
2022/08/14 02:21:50;;;;;;;5.07;4.77;;;19.30;99.90;;;;;;5073728;28;20680;-70
2022/08/14 02:24:20;;;;;;;10.27;4.33;;;19.20;99.90;;;;;;5073967;28;20634;-70
2022/08/14 02:26:48;;;;;;;5.70;5.03;;;19.10;99.90;;;;;;5073987;28;20581;-70
2022/08/14 02:29:22;;;;;;;5.30;4.80;;;19.10;99.90;;;;;;5074198;28;20578;-70
2022/08/14 02:31:54;;;;;;;6.50;5.37;;;19.20;99.90;;;;;;5073595;28;20581;-70
2022/08/14 02:34:27;;;;;;;7.93;4.80;;;19.20;99.90;;;;;;5073853;28;20997;-70
2022/08/14 02:36:58;;;;;;;5.67;5.17;;;19.30;99.90;;;;;;5073731;28;20574;-70
2022/08/14 02:39:26;;;;;;;8.00;4.50;;;19.20;99.90;;;;;;5073333;28;21124;-70
2022/08/14 02:41:52;;;;;;;5.03;4.47;;;19.00;99.90;;;;;;5073313;28;20634;-70
2022/08/14 02:44:21;;;;;;;5.23;4.93;;;18.90;99.90;;;;;;5073292;28;20570;-70
2022/08/14 02:46:51;;;;;;;8.93;5.27;;;18.80;99.90;;;;;;5073420;28;21041;-70
2022/08/14 02:49:26;;;;;;;5.60;5.20;;;18.70;99.90;;;;;;5073658;28;20567;-69
2022/08/14 02:51:57;;;;;;;6.73;5.13;;;18.70;99.90;;;;;;5073603;28;20626;-69
2022/08/14 02:54:25;;;;;;;5.33;4.60;;;18.70;99.90;;;;;;5073157;28;20632;-70
2022/08/14 02:56:56;;;;;;;9.50;5.60;;;18.30;99.90;;;;;;5073632;28;20587;-70
2022/08/14 02:59:27;;;;;;;5.00;4.70;;;18.20;99.90;;;;;;5073780;28;20594;-70
2022/08/14 03:01:54;;;;;;;5.90;4.93;;;18.10;99.90;;;;;;5073364;28;20685;-70
2022/08/14 03:04:22;;;;;;;6.27;5.20;;;18.00;99.90;;;;;;5072765;28;20634;-70
2022/08/14 03:06:49;;;;;;;11.27;5.47;;;17.90;99.90;;;;;;5073402;28;20579;-70
2022/08/14 03:09:16;;;;;;;6.30;5.80;;;18.00;99.90;;;;;;5073319;28;20641;-70
2022/08/14 03:11:43;;;;;;;5.77;5.30;;;18.10;99.90;;;;;;5073297;28;20992;-70
2022/08/14 03:14:11;;;;;;;6.07;5.50;;;18.20;99.90;;;;;;5072250;28;21165;-70
2022/08/14 03:16:40;;;;;;;5.23;4.93;;;18.40;99.90;;;;;;5073305;28;21191;-70
2022/08/14 03:19:07;;;;;;;6.37;5.87;;;18.50;99.90;;;;;;5072829;28;20633;-70
2022/08/14 03:21:36;;;;;;;6.20;5.80;;;18.60;99.90;;;;;;5072690;28;20613;-70
2022/08/14 03:24:10;;;;;;;7.57;6.87;;;18.50;99.90;;;;;;5072855;28;20638;-70
2022/08/14 03:26:39;;;;;;;6.10;5.60;;;18.60;99.90;;;;;;5072984;28;20578;-70
2022/08/14 03:29:06;;;;;;;10.20;6.80;;;18.60;99.90;;;;;;5072903;28;20545;-70
2022/08/14 03:31:35;;;;;;;6.20;5.50;;;18.70;99.90;;;;;;5072805;28;21005;-70
2022/08/14 03:34:03;;;;;;;5.37;5.07;;;18.80;99.90;;;;;;5073096;28;20574;-70
2022/08/14 03:36:32;;;;;;;6.60;6.10;;;18.80;99.90;;;;;;5073172;28;20637;-70
2022/08/14 03:38:59;;;;;;;6.33;5.73;;;18.80;99.90;;;;;;5073382;28;20636;-70
2022/08/14 03:41:27;;;;;;;6.60;6.10;;;18.90;99.90;;;;;;5072899;28;20763;-70
2022/08/14 03:43:56;;;;;;;7.77;6.00;;;18.80;99.90;;;;;;5072677;28;20574;-70
2022/08/14 03:46:26;;;;;;;6.20;5.80;;;18.90;99.90;;;;;;5072619;28;20587;-70
2022/08/14 03:48:53;;;;;;;6.37;5.77;;;18.90;99.90;;;;;;5072769;28;20589;-70
2022/08/14 03:51:21;;;;;;;6.10;5.60;;;19.00;99.90;;;;;;5073047;28;20974;-70
2022/08/14 03:53:48;;;;;;;6.30;5.30;;;19.00;99.90;;;;;;5073132;28;20622;-70
2022/08/14 03:56:16;;;;;;;7.83;5.77;;;19.00;99.90;;;;;;5072827;28;20585;-70
2022/08/14 03:58:48;;;;;;;6.60;6.20;;;19.00;99.90;;;;;;5072551;28;21229;-70
2022/08/14 04:01:18;;;;;;;7.43;6.20;;;19.00;99.90;;;;;;5072589;28;20631;-70
2022/08/14 04:03:46;;;;;;;6.00;5.60;;;18.90;99.90;;;;;;5072667;28;20603;-70
2022/08/14 04:06:13;;;;;;;7.83;6.47;;;19.00;99.90;;;;;;5072425;28;20646;-70
2022/08/14 04:08:40;;;;;;;15.27;6.27;;;19.00;99.90;;;;;;5072785;28;20537;-70
2022/08/14 04:11:08;;;;;;;7.13;6.53;;;19.00;99.90;;;;;;5072743;28;20586;-70
2022/08/14 04:13:38;;;;;;;7.20;6.50;;;18.90;99.90;;;;;;5072553;28;20567;-70
2022/08/14 04:16:21;;;;;;;6.73;6.33;;;18.90;99.90;;;;;;5072548;28;20574;-70
2022/08/14 04:18:54;;;;;;;7.17;6.50;;;18.90;99.90;;;;;;5072959;28;20622;-70
2022/08/14 04:21:23;;;;;;;6.47;5.97;;;18.90;99.90;;;;;;5072595;28;20666;-70
2022/08/14 04:23:51;;;;;;;7.40;6.20;;;18.90;99.90;;;;;;5072552;28;20650;-70
2022/08/14 04:26:20;;;;;;;7.20;6.50;;;18.90;99.90;;;;;;5075855;28;20595;-70
2022/08/14 04:28:49;;;;;;;6.20;5.80;;;18.90;99.90;;;;;;5076102;28;20625;-70
2022/08/14 04:31:17;;;;;;;7.93;7.30;;;18.80;99.90;;;;;;5075820;28;20597;-70
2022/08/14 04:33:44;;;;;;;8.00;6.53;;;18.80;99.90;;;;;;5076116;28;20643;-70
2022/08/14 04:36:10;;;;;;;7.77;7.07;;;18.80;99.90;;;;;;5075506;28;20610;-70
2022/08/14 04:44:07;;;;;;;6.90;6.27;;;18.70;99.90;;;;;;5075621;28;20594;-70
2022/08/14 04:46:34;;;;;;;9.00;7.43;;;18.70;99.90;;;;;;5075711;28;20675;-70
2022/08/14 04:49:02;;;;;;;7.87;7.10;;;18.70;99.90;;;;;;5075532;28;20586;-70
2022/08/14 04:51:29;;;;;;;7.33;6.83;;;18.70;99.90;;;;;;5075965;28;20606;-70
2022/08/14 04:53:55;;;;;;;6.83;6.30;;;18.80;99.90;;;;;;5075617;28;20571;-70
2022/08/14 04:56:23;;;;;;;7.77;7.17;;;18.90;99.90;;;;;;5075474;28;21139;-70
2022/08/14 04:58:56;;;;;;;6.70;6.20;;;19.00;99.90;;;;;;5075804;28;20568;-70
2022/08/14 05:01:24;;;;;;;10.47;7.33;;;19.00;99.90;;;;;;5075541;28;20629;-70
2022/08/14 05:03:52;;;;;;;7.07;6.43;;;19.00;99.90;;;;;;5075547;28;21170;-70
2022/08/14 05:06:18;;;;;;;7.73;7.13;;;19.00;99.90;;;;;;5075278;28;21212;-70
2022/08/14 05:08:45;;;;;;;9.00;7.10;;;19.10;99.90;;;;;;5075561;28;20571;-70
2022/08/14 05:11:11;;;;;;;8.40;7.30;;;19.20;99.90;;;;;;5074189;28;21070;-70
2022/08/14 05:13:38;;;;;;;7.70;7.20;;;19.20;99.90;;;;;;5074313;28;20633;-70
2022/08/14 05:16:06;;;;;;;8.00;7.30;;;19.40;99.90;;;;;;5075282;28;20625;-70
2022/08/14 05:18:36;;;;;;;8.00;7.37;;;19.40;99.90;;;;;;5075030;28;20955;-70
2022/08/14 05:21:05;;;;;;;8.90;8.17;;;19.30;99.90;;;;;;5074750;28;20593;-70
2022/08/14 05:23:33;;;;;;;8.90;8.00;;;19.40;99.90;;;;;;5073499;28;20696;-70
2022/08/14 05:26:01;;;;;;;7.97;7.40;;;19.40;99.90;;;;;;5074899;28;20640;-70
2022/08/14 05:28:32;;;;;;;8.97;8.17;;;19.40;99.90;;;;;;5075719;28;20679;-70
2022/08/14 05:31:07;;;;;;;8.47;7.80;;;19.40;99.90;;;;;;5074794;28;20585;-70
2022/08/14 05:33:35;;;;;;;9.40;8.53;;;19.40;99.90;;;;;;5074993;28;20651;-70
2022/08/14 05:36:04;;;;;;;8.30;7.60;;;19.40;99.90;;;;;;5075271;28;20579;-73
2022/08/14 05:38:35;;;;;;;8.97;8.27;;;19.60;99.90;;;;;;5078235;28;20583;-74
2022/08/14 05:41:05;;;;;;;8.50;7.53;;;19.60;99.90;;;;;;5079079;28;20717;-74
2022/08/14 05:43:31;;;;;;;8.60;8.00;;;19.80;99.90;;;;;;5079788;28;20579;-74
2022/08/14 05:45:58;;;;;;;8.33;7.70;;;19.80;99.90;;;;;;5078596;28;20988;-74
2022/08/14 05:48:26;;;;;;;9.87;8.90;;;19.90;99.90;;;;;;5079543;28;20579;-74
2022/08/14 05:50:54;;;;;;;8.40;7.60;;;19.90;99.90;;;;;;5079955;28;20697;-74
2022/08/14 05:53:21;;;;;;;9.20;8.40;;;20.00;99.90;;;;;;5079094;28;20594;-74
2022/08/14 05:55:48;;;;;;;9.80;8.80;;;20.00;99.90;;;;;;5078501;28;20672;-74
2022/08/14 05:58:15;;;;;;;8.50;7.80;;;20.10;99.90;;;;;;5079064;28;20932;-74
2022/08/14 06:00:43;;;;;;;8.70;8.10;;;20.30;99.90;;;;;;5078660;28;21172;-74
2022/08/14 06:03:15;;;;;;;8.93;8.13;;;20.40;99.90;;;;;;5080602;28;20634;-74
2022/08/14 06:05:44;;;;;;;10.77;8.23;;;20.60;99.90;;;;;;5078152;28;20650;-74
2022/08/14 06:08:16;;;;;;;9.93;9.23;;;20.70;99.90;;;;;;5079615;28;20571;-74
2022/08/14 06:10:43;;;;;;;9.10;7.80;;;20.70;99.90;;;;;;5079609;28;20651;-74
2022/08/14 06:13:11;;;;;;;8.70;7.90;;;20.90;99.90;;;;;;5080341;28;21149;-74
2022/08/14 06:15:37;;;;;;;7.93;7.23;;;21.00;99.90;;;;;;5079241;28;21132;-74
2022/08/14 06:18:04;;;;;;;8.40;6.90;;;21.10;99.90;;;;;;5077584;28;21187;-74
2022/08/14 06:20:31;;;;;;;7.67;7.17;;;21.30;99.90;;;;;;5080058;28;20593;-74
2022/08/14 06:22:58;;;;;;;8.40;7.70;;;21.40;99.90;;;;;;5080094;28;20729;-75
2022/08/14 06:25:25;;;;;;;8.87;7.60;;;21.50;99.90;;;;;;5078012;28;20642;-74
2022/08/14 06:27:52;;;;;;;9.40;8.30;;;21.50;99.90;;;;;;5077796;28;20617;-74
2022/08/14 06:30:21;;;;;;;9.17;8.37;;;21.60;99.90;;;;;;5076966;28;20623;-74
2022/08/14 06:32:48;;;;;;;10.83;8.57;;;21.60;99.90;;;;;;5058924;28;20637;-74
2022/08/14 06:35:22;;;;;;;9.30;8.40;;;21.50;99.90;;;;;;5076915;28;20590;-74
2022/08/14 06:37:55;;;;;;;10.50;8.50;;;21.70;99.90;;;;;;5079065;28;20924;-74
2022/08/14 06:40:24;;;;;;;10.53;8.60;;;22.00;99.90;;;;;;5082841;28;20626;-74
2022/08/14 06:42:51;;;;;;;9.30;8.50;;;22.20;99.90;;;;;;5080820;28;20724;-74
2022/08/14 06:45:17;;;;;;;8.50;7.87;;;22.30;99.90;;;;;;5078511;28;20947;-74
2022/08/14 06:47:46;;;;;;;9.23;8.43;;;22.30;99.90;;;;;;5080441;28;20633;-74
2022/08/14 06:50:18;;;;;;;9.87;8.70;;;22.50;99.90;;;;;;5078797;28;20574;-74
2022/08/14 06:52:44;;;;;;;14.03;9.13;;;22.40;99.90;;;;;;5080150;28;20691;-74
2022/08/14 06:55:15;;;;;;;9.70;8.80;;;22.40;99.90;;;;;;5082384;28;21150;-74
2022/08/14 06:57:47;;;;;;;11.30;9.83;;;22.50;99.90;;;;;;5081687;28;21014;-74
2022/08/14 07:00:18;;;;;;;11.60;9.20;;;22.50;99.90;;;;;;5083333;28;20629;-74
2022/08/14 07:08:14;;;;;;;10.87;9.03;;;22.80;99.90;;;;;;5082370;28;20582;-74
2022/08/14 07:10:42;;;;;;;8.93;8.33;;;23.00;99.90;;;;;;5081881;28;20952;-74
2022/08/14 07:13:10;;;;;;;8.10;7.53;;;23.10;99.90;;;;;;5082904;28;20614;-74
2022/08/14 07:15:37;;;;;;;10.43;8.90;;;23.10;99.90;;;;;;5081559;28;20760;-74
2022/08/14 07:18:04;;;;;;;8.97;8.27;;;23.10;99.90;;;;;;5082420;28;20582;-74
2022/08/14 07:20:31;;;;;;;8.97;8.27;;;23.00;99.90;;;;;;5083079;28;20621;-74
2022/08/14 07:22:59;;;;;;;12.13;8.33;;;23.20;99.90;;;;;;5082512;28;20661;-74
2022/08/14 07:25:27;;;;;;;9.03;8.23;;;23.20;99.90;;;;;;5082388;28;20721;-74
2022/08/14 07:27:54;;;;;;;8.83;8.17;;;23.30;99.90;;;;;;5083963;28;20574;-74
2022/08/14 07:30:22;;;;;;;8.40;7.60;;;23.50;99.90;;;;;;5082614;28;21008;-74
2022/08/14 07:32:48;;;;;;;8.43;7.73;;;23.60;99.90;;;;;;5084539;28;20636;-74
2022/08/14 07:35:15;;;;;;;9.37;8.30;;;23.80;99.90;;;;;;5082797;28;20571;-74
2022/08/14 07:37:41;;;;;;;8.97;8.10;;;23.90;99.90;;;;;;5081903;28;20614;-74
2022/08/14 07:40:08;;;;;;;8.10;7.50;;;23.90;99.90;;;;;;5081967;28;20915;-74
2022/08/14 07:42:35;;;;;;;9.20;7.93;;;23.90;99.90;;;;;;5083170;28;20751;-74
2022/08/14 07:45:02;;;;;;;7.83;7.23;;;24.20;99.90;;;;;;5082691;28;20609;-74
2022/08/14 07:47:29;;;;;;;8.97;8.27;;;24.20;99.90;;;;;;5083381;28;20590;-74
2022/08/14 07:50:07;;;;;;;9.10;7.57;;;24.30;99.90;;;;;;5082361;28;20575;-74
2022/08/14 07:52:33;;;;;;;7.53;6.83;;;24.40;99.90;;;;;;5082364;28;20927;-74
2022/08/14 07:55:00;;;;;;;7.17;6.57;;;24.60;99.90;;;;;;5081765;28;20642;-73
2022/08/14 07:57:27;;;;;;;9.03;6.73;;;24.60;99.90;;;;;;5081151;28;20629;-74
2022/08/14 07:59:53;;;;;;;7.33;6.70;;;24.30;99.90;;;;;;5081614;28;20677;-73
2022/08/14 08:02:20;;;;;;;8.23;6.67;;;24.60;99.90;;;;;;5086832;28;20676;-73
2022/08/14 08:04:52;;;;;;;6.53;5.73;;;24.70;99.90;;;;;;5086416;28;20654;-74
2022/08/14 08:07:19;;;;;;;10.93;5.93;;;24.80;99.90;;;;;;5084335;28;20618;-74
2022/08/14 08:09:54;;;;;;;7.47;6.37;;;25.00;99.90;;;;;;5088064;28;20618;-73
2022/08/14 08:12:20;;;;;;;6.50;5.90;;;25.20;99.90;;;;;;5088242;28;20613;-73
2022/08/14 08:14:49;;;;;;;5.83;5.53;;;25.20;99.90;;;;;;5084934;28;20629;-73
2022/08/14 08:17:19;;;;;;;11.43;7.40;;;25.20;99.90;;;;;;5087463;28;20636;-74
2022/08/14 08:19:47;;;;;;;5.67;5.27;;;25.40;99.90;;;;;;5086130;28;20626;-74
2022/08/14 08:22:14;;;;;;;6.57;6.07;;;25.60;99.90;;;;;;5087960;28;20717;-73
2022/08/14 08:24:42;;;;;;;6.43;5.93;;;25.80;99.90;;;;;;5087362;28;20641;-73
2022/08/14 08:27:15;;;;;;;6.53;5.83;;;26.00;99.90;;;;;;5086820;28;20725;-74
2022/08/14 08:29:42;;;;;;;6.17;5.67;;;25.90;99.90;;;;;;5087492;28;20573;-73
2022/08/14 08:32:09;;;;;;;6.77;6.17;;;25.90;99.90;;;;;;5087281;28;20582;-73
2022/08/14 08:34:44;;;;;;;6.20;5.70;;;25.60;99.90;;;;;;5084380;28;20989;-73
2022/08/14 08:37:11;;;;;;;6.20;5.60;;;25.70;99.90;;;;;;5086260;28;20689;-73
2022/08/14 08:39:48;;;;;;;6.17;5.70;;;26.00;99.90;;;;;;5086472;28;20701;-73
2022/08/14 08:42:24;;;;;;;5.93;5.53;;;26.10;99.90;;;;;;5086867;28;20622;-73
2022/08/14 08:44:54;;;;;;;6.13;5.73;;;26.00;99.90;;;;;;5085776;28;21069;-73
2022/08/14 08:47:21;;;;;;;5.73;5.33;;;25.50;99.90;;;;;;5084696;28;20634;-73
2022/08/14 08:49:47;;;;;;;6.00;5.40;;;25.60;99.90;;;;;;5085424;28;20729;-73
2022/08/14 08:52:14;;;;;;;6.10;5.60;;;25.90;99.90;;;;;;5087490;28;20681;-73
2022/08/14 08:54:41;;;;;;;6.27;5.70;;;26.20;99.90;;;;;;5087404;28;20614;-73
2022/08/14 08:57:11;;;;;;;7.30;5.80;;;26.00;99.90;;;;;;5085926;28;20780;-73
2022/08/14 08:59:38;;;;;;;6.00;5.50;;;26.20;99.90;;;;;;5087649;28;20618;-73
2022/08/14 09:02:07;;;;;;;6.90;5.67;;;26.60;99.90;;;;;;5084458;28;20653;-73
2022/08/14 09:04:43;;;;;;;5.97;5.43;;;26.60;99.90;;;;;;5087169;28;20650;-74
2022/08/14 09:07:10;;;;;;;6.23;5.83;;;26.90;99.90;;;;;;5085689;28;20586;-74
2022/08/14 09:09:53;;;;;;;5.93;5.50;;;27.00;99.90;;;;;;5086181;28;20620;-74
2022/08/14 09:12:20;;;;;;;5.37;5.00;;;26.90;99.90;;;;;;5085387;28;20674;-73
2022/08/14 09:14:47;;;;;;;6.10;5.70;;;27.10;99.90;;;;;;5087415;28;20722;-74
2022/08/14 09:17:14;;;;;;;7.17;6.30;;;27.20;99.90;;;;;;5086650;28;20635;-74
2022/08/14 09:19:41;;;;;;;8.20;6.07;;;27.10;99.90;;;;;;5085775;28;20619;-73
2022/08/14 09:22:07;;;;;;;6.40;5.87;;;27.10;99.90;;;;;;5087082;28;20652;-74
2022/08/14 09:24:34;;;;;;;6.70;5.87;;;27.30;99.90;;;;;;5084836;28;20653;-74
2022/08/14 09:27:00;;;;;;;6.33;5.80;;;27.50;99.90;;;;;;5082185;28;20586;-73
2022/08/14 09:29:27;;;;;;;6.13;5.63;;;27.60;99.90;;;;;;5079718;28;20613;-74
2022/08/14 09:31:56;;;;;;;6.20;5.60;;;27.90;99.90;;;;;;5080453;28;20624;-74
2022/08/14 09:34:44;;;;;;;6.20;5.70;;;27.90;99.90;;;;;;5081222;28;20614;-75
2022/08/14 09:37:17;;;;;;;4.77;4.47;;;28.00;99.90;;;;;;5080758;28;20661;-74
2022/08/14 09:40:07;;;;;;;5.60;5.20;;;28.00;99.90;;;;;;5081608;28;20677;-74
2022/08/14 09:42:56;;;;;;;5.63;5.20;;;27.90;99.90;;;;;;5081884;28;20630;-74
2022/08/14 09:45:41;;;;;;;5.27;4.90;;;28.10;99.90;;;;;;5080000;28;20622;-74
2022/08/14 09:48:17;;;;;;;5.20;4.80;;;28.10;99.90;;;;;;5081172;28;20733;-74
2022/08/14 09:50:46;;;;;;;4.93;4.63;;;28.40;99.90;;;;;;5082588;28;20597;-74
2022/08/14 09:53:17;;;;;;;9.20;5.27;;;28.30;99.90;;;;;;5080132;28;20619;-74
2022/08/14 09:55:57;;;;;;;4.30;4.00;;;28.60;99.90;;;;;;5082149;28;20626;-74
2022/08/14 09:58:37;;;;;;;5.20;4.33;;;28.60;99.90;;;;;;5080864;28;20586;-74
2022/08/14 10:01:11;;;;;;;5.03;4.57;;;28.70;99.90;;;;;;5080576;28;20653;-74
2022/08/14 10:03:51;;;;;;;5.20;4.73;;;29.10;99.90;;;;;;5081511;28;20633;-74
2022/08/14 10:06:20;;;;;;;4.40;4.00;;;29.20;99.90;;;;;;5081322;28;20642;-74
2022/08/14 10:08:57;;;;;;;5.33;3.93;;;29.10;99.90;;;;;;5081821;28;20706;-74
2022/08/14 10:11:34;;;;;;;5.00;4.47;;;29.30;99.90;;;;;;5081538;28;20625;-74
2022/08/14 10:14:16;;;;;;;4.70;4.30;;;29.30;99.90;;;;;;5081485;28;20695;-75
2022/08/14 10:16:53;;;;;;;4.47;4.27;;;29.20;99.90;;;;;;5082265;28;20578;-73
2022/08/14 10:19:27;;;;;;;4.60;4.20;;;29.30;99.90;;;;;;5081924;28;20626;-73
2022/08/14 10:22:04;;;;;;;6.17;4.20;;;29.50;99.90;;;;;;5084481;28;20745;-72
2022/08/14 10:24:38;;;;;;;5.37;4.90;;;29.30;99.90;;;;;;5081771;28;20649;-73
2022/08/14 10:27:17;;;;;;;6.23;3.97;;;29.70;99.90;;;;;;5079742;28;21202;-73
2022/08/14 10:29:49;;;;;;;4.07;3.87;;;30.10;99.90;;;;;;5080820;28;21138;-73
2022/08/14 10:32:16;;;;;;;3.97;3.47;;;30.20;99.90;;;;;;5079319;28;20630;-73
2022/08/14 10:34:42;;;;;;;4.03;3.83;;;30.00;99.90;;;;;;5080910;28;20681;-73
2022/08/14 10:37:12;;;;;;;7.83;4.13;;;30.00;99.90;;;;;;5078441;28;20677;-73
2022/08/14 10:39:40;;;;;;;3.70;3.40;;;30.10;99.90;;;;;;5078637;28;20610;-73
2022/08/14 10:42:12;;;;;;;4.50;3.30;;;29.60;99.90;;;;;;5076482;28;20593;-73
2022/08/14 10:44:44;;;;;;;3.70;3.50;;;30.00;99.90;;;;;;5076210;28;20579;-73
2022/08/14 10:47:12;;;;;;;4.80;3.40;;;30.50;99.90;;;;;;5076239;28;20571;-73
2022/08/14 10:49:56;;;;;;;5.60;4.57;;;30.60;99.90;;;;;;5075970;28;20614;-73
2022/08/14 10:52:28;;;;;;;3.87;3.57;;;30.80;99.90;;;;;;5076163;28;21181;-73
2022/08/14 10:55:12;;;;;;;3.60;3.40;;;30.50;99.90;;;;;;5075234;28;20633;-73
2022/08/14 10:57:52;;;;;;;3.40;3.27;;;30.50;99.90;;;;;;5076034;28;20763;-73
2022/08/14 11:00:25;;;;;;;4.00;3.67;;;30.70;99.90;;;;;;5076332;28;20614;-73
2022/08/14 11:03:00;;;;;;;3.63;3.33;;;30.80;99.90;;;;;;5077045;28;21024;-74
2022/08/14 11:05:45;;;;;;;3.60;3.30;;;30.60;99.90;;;;;;5075345;28;20646;-74
2022/08/14 11:08:14;;;;;;;4.20;3.90;;;30.90;99.90;;;;;;5075749;28;20611;-74
2022/08/14 11:10:45;;;;;;;3.77;3.43;;;31.10;99.90;;;;;;5075501;28;20575;-73
2022/08/14 11:13:17;;;;;;;5.70;3.40;;;31.00;99.90;;;;;;5076363;28;20618;-74
2022/08/14 11:15:45;;;;;;;3.60;3.40;;;31.20;99.90;;;;;;5076070;28;20648;-74
2022/08/14 11:18:16;;;;;;;3.30;3.10;;;31.20;99.90;;;;;;5076041;28;20625;-74
2022/08/14 11:20:48;;;;;;;3.60;3.40;;;31.50;99.90;;;;;;5077155;28;20586;-74
2022/08/14 11:23:17;;;;;;;3.60;3.30;;;31.40;99.90;;;;;;5078620;28;20688;-74
2022/08/14 11:25:44;;;;;;;6.93;3.10;;;32.00;99.90;;;;;;5077880;28;20704;-73
2022/08/14 11:28:15;;;;;;;5.47;3.20;;;31.90;99.90;;;;;;5078173;28;20575;-73
2022/08/14 11:30:43;;;;;;;3.20;3.00;;;31.90;99.90;;;;;;5077888;28;20677;-73
2022/08/14 11:33:12;;;;;;;3.60;3.30;;;31.70;99.90;;;;;;5078056;28;20578;-73
2022/08/14 11:35:41;;;;;;;3.10;2.77;;;31.90;99.90;;;;;;5082547;28;21014;-73
2022/08/14 11:38:11;;;;;;;3.37;3.17;;;32.40;99.90;;;;;;5083804;28;20610;-74
2022/08/14 11:40:38;;;;;;;3.70;3.50;;;32.30;99.90;;;;;;5083036;28;20641;-74
2022/08/14 11:43:07;;;;;;;3.63;3.00;;;32.50;1.00;;;;;;5083830;28;20713;-75
2022/08/14 11:45:39;;;;;;;3.90;3.60;;;32.30;1.00;;;;;;5084245;28;20930;-74
2022/08/14 11:48:21;;;;;;;3.57;3.30;;;32.60;1.00;;;;;;5083231;28;20622;-73
2022/08/14 11:50:53;;;;;;;3.30;3.20;;;33.00;1.00;;;;;;5082932;28;20622;-73
2022/08/14 11:53:24;;;;;;;3.67;3.37;;;33.00;1.00;;;;;;5083004;28;20578;-73
2022/08/14 11:55:56;;;;;;;3.40;3.20;;;33.60;1.00;;;;;;5081654;28;20604;-73
2022/08/14 11:58:27;;;;;;;3.20;3.10;;;33.50;1.00;;;;;;5082871;28;20632;-73
2022/08/14 12:00:58;;;;;;;3.93;2.93;;;33.20;1.00;;;;;;5082912;28;20713;-73
2022/08/14 12:03:57;;;;;;;3.40;3.20;;;33.70;1.00;;;;;;5082467;28;20658;-73
2022/08/14 12:06:25;;;;;;;2.90;2.80;;;33.60;1.00;;;;;;5078360;28;20674;-73
2022/08/14 12:08:54;;;;;;;2.90;2.70;;;33.70;1.00;;;;;;5081341;28;20974;-73
2022/08/14 12:11:21;;;;;;;3.33;3.03;;;33.90;1.00;;;;;;5082157;28;20578;-73
2022/08/14 12:13:47;;;;;;;3.53;3.33;;;34.40;1.00;;;;;;5081103;28;21010;-74
2022/08/14 12:16:19;;;;;;;4.30;3.17;;;35.00;1.00;;;;;;5081283;28;20957;-74
2022/08/14 12:18:48;;;;;;;3.30;3.10;;;35.00;1.00;;;;;;5081267;28;20614;-74
2022/08/14 12:21:20;;;;;;;4.57;3.27;;;35.00;1.00;;;;;;5080668;28;21240;-74
2022/08/14 12:24:00;;;;;;;3.43;3.23;;;35.40;1.00;;;;;;5079718;28;20685;-73
2022/08/14 12:26:26;;;;;;;3.47;3.17;;;35.00;1.00;;;;;;5080351;28;20614;-73
2022/08/14 12:29:11;;;;;;;3.63;3.47;;;34.40;1.00;;;;;;5081155;28;20731;-74
2022/08/14 12:31:40;;;;;;;2.70;2.60;;;35.10;1.00;;;;;;5079710;28;20704;-74
2022/08/14 12:34:08;;;;;;;3.30;2.90;;;34.50;1.00;;;;;;5081498;28;20629;-74
2022/08/14 12:36:34;;;;;;;3.17;2.90;;;34.60;1.00;;;;;;5081087;28;20677;-73
2022/08/14 12:39:05;;;;;;;3.13;2.93;;;35.40;1.00;;;;;;5081484;28;20681;-74
2022/08/14 12:41:37;;;;;;;3.20;3.00;;;35.40;1.00;;;;;;5081148;28;20677;-74
2022/08/14 12:44:05;;;;;;;3.40;3.10;;;35.70;1.00;;;;;;5082901;28;21017;-74
2022/08/14 12:46:36;;;;;;;3.40;3.20;;;36.00;1.00;;;;;;5080336;28;21290;-74
2022/08/14 12:49:10;;;;;;;3.47;3.10;;;36.50;1.00;;;;;;5078514;28;20629;-74
2022/08/14 12:51:36;;;;;;;6.93;2.80;;;36.60;1.00;;;;;;5079566;28;20586;-73
2022/08/14 12:54:17;;;;;;;3.17;2.97;;;36.70;1.00;;;;;;5077503;28;20970;-74
2022/08/14 12:56:46;;;;;;;3.17;2.90;;;35.30;1.00;;;;;;5077700;28;20617;-73
2022/08/14 12:59:13;;;;;;;3.03;2.83;;;36.00;1.00;;;;;;5077045;28;20587;-73
2022/08/14 13:01:41;;;;;;;5.40;3.13;;;36.10;1.00;;;;;;5077501;28;20635;-73
2022/08/14 13:04:15;;;;;;;2.80;2.60;;;35.00;1.00;;;;;;5077020;28;20980;-73
2022/08/14 13:06:46;;;;;;;3.27;2.97;;;34.80;1.00;;;;;;5077298;28;20637;-73
2022/08/14 13:09:14;;;;;;;6.70;3.40;;;35.00;1.00;;;;;;5078516;28;20582;-73
2022/08/14 13:11:50;;;;;;;2.97;2.77;;;35.40;1.00;;;;;;5077106;28;21071;-74
2022/08/14 13:14:23;;;;;;;3.50;3.30;;;35.30;1.00;;;;;;5076552;28;20574;-74